createdAt,value
2023-05-10T00:00:25.967Z,5.75
2023-05-10T00:02:58.980Z,7.57
2023-05-10T00:05:29.546Z,6.57
2023-05-10T00:08:00.616Z,6.43
2023-05-10T00:10:31.105Z,8.68
2023-05-10T00:13:02.311Z,9.35
2023-05-10T00:15:32.813Z,7.35
2023-05-10T00:18:03.685Z,7.90
2023-05-10T00:20:34.686Z,8.40
2023-05-10T00:23:05.518Z,9.20
2023-05-10T00:25:35.908Z,9.77
2023-05-10T00:28:06.822Z,10.35
2023-05-10T00:30:36.951Z,9.90
2023-05-10T00:33:07.525Z,8.63
2023-05-10T00:35:38.174Z,7.90
2023-05-10T00:38:08.918Z,8.98
2023-05-10T00:40:39.760Z,8.15
2023-05-10T00:43:16.265Z,8.45
2023-05-10T00:45:46.976Z,9.52
2023-05-10T00:48:17.700Z,8.75
2023-05-10T00:50:48.314Z,7.25
2023-05-10T00:53:19.997Z,7.95
2023-05-10T00:55:50.100Z,8.07
2023-05-10T00:58:20.912Z,8.60
2023-05-10T01:00:51.905Z,7.47
2023-05-10T01:03:22.655Z,8.27
2023-05-10T01:05:52.736Z,8.10
2023-05-10T01:08:22.891Z,7.15
2023-05-10T01:10:54.664Z,6.43
2023-05-10T01:13:37.324Z,6.60
2023-05-10T01:16:09.069Z,7.40
2023-05-10T01:18:41.819Z,7.35
2023-05-10T01:21:35.766Z,7.28
2023-05-10T01:24:17.605Z,8.30
2023-05-10T01:27:21.716Z,9.48
2023-05-10T01:30:21.990Z,10.57
2023-05-10T01:32:55.444Z,9.20
2023-05-10T01:35:44.251Z,7.97
2023-05-10T01:38:29.753Z,12.80
2023-05-10T01:41:17.580Z,11.15
2023-05-10T01:44:05.834Z,8.35
2023-05-10T01:46:42.024Z,7.90
2023-05-10T01:49:22.163Z,8.05
2023-05-10T01:51:56.932Z,7.75
2023-05-10T01:54:29.687Z,7.03
2023-05-10T01:57:05.857Z,7.15
2023-05-10T01:59:42.958Z,11.27
2023-05-10T02:02:14.662Z,11.32
2023-05-10T02:04:46.584Z,12.30
2023-05-10T02:07:18.203Z,9.93
2023-05-10T02:09:50.472Z,8.75
2023-05-10T02:12:21.864Z,10.00
2023-05-10T02:14:55.063Z,11.20
2023-05-10T02:17:28.630Z,11.73
2023-05-10T02:20:01.251Z,10.65
2023-05-10T02:22:31.866Z,10.55
2023-05-10T02:25:03.495Z,11.20
2023-05-10T02:27:34.109Z,12.77
2023-05-10T02:30:04.740Z,12.25
2023-05-10T02:32:35.501Z,11.48
2023-05-10T02:35:07.331Z,12.05
2023-05-10T02:37:39.838Z,12.75
2023-05-10T02:40:11.479Z,11.43
2023-05-10T02:42:44.910Z,13.30
2023-05-10T02:45:17.844Z,14.20
2023-05-10T02:47:47.953Z,12.43
2023-05-10T02:50:18.929Z,14.30
2023-05-10T02:52:52.289Z,13.00
2023-05-10T02:55:41.365Z,13.20
2023-05-10T02:58:12.235Z,14.68
2023-05-10T03:00:42.688Z,15.93
2023-05-10T03:03:12.610Z,13.25
2023-05-10T03:05:42.993Z,13.10
2023-05-10T03:08:13.318Z,16.80
2023-05-10T03:10:53.803Z,11.02
2023-05-10T03:13:56.980Z,8.95
2023-05-10T03:16:32.325Z,11.93
2023-05-10T03:19:12.504Z,12.00
2023-05-10T03:21:46.261Z,15.20
2023-05-10T03:24:17.699Z,15.57
2023-05-10T03:26:49.882Z,16.23
2023-05-10T03:29:22.756Z,15.45
2023-05-10T03:31:53.517Z,20.38
2023-05-10T03:34:29.454Z,25.15
2023-05-10T03:37:00.331Z,11.57
2023-05-10T03:39:33.644Z,14.43
2023-05-10T03:42:05.342Z,18.05
2023-05-10T03:44:35.470Z,19.67
2023-05-10T03:47:05.956Z,18.63
2023-05-10T03:49:36.244Z,20.45
2023-05-10T03:52:07.553Z,16.65
2023-05-10T03:54:38.116Z,14.68
2023-05-10T03:57:08.851Z,14.60
2023-05-10T03:59:38.875Z,11.90
2023-05-10T04:02:09.268Z,13.73
2023-05-10T04:04:39.527Z,13.27
2023-05-10T04:07:09.983Z,12.68
2023-05-10T04:09:39.899Z,13.93
2023-05-10T04:12:11.083Z,14.27
2023-05-10T04:14:41.075Z,14.65
2023-05-10T04:17:10.918Z,15.32
2023-05-10T04:19:41.366Z,15.18
2023-05-10T04:22:11.385Z,14.32
2023-05-10T04:24:41.815Z,14.00
2023-05-10T04:27:12.009Z,13.18
2023-05-10T04:29:42.302Z,13.07
2023-05-10T04:32:12.301Z,13.65
2023-05-10T04:34:42.726Z,14.93
2023-05-10T04:37:12.664Z,13.68
2023-05-10T04:39:43.129Z,12.13
2023-05-10T04:42:13.608Z,13.13
2023-05-10T04:44:44.723Z,13.75
2023-05-10T04:47:15.345Z,10.25
2023-05-10T04:49:45.778Z,11.93
2023-05-10T04:52:16.524Z,14.48
2023-05-10T04:54:46.876Z,10.48
2023-05-10T04:57:16.856Z,8.77
2023-05-10T04:59:49.024Z,9.93
2023-05-10T05:02:20.357Z,11.80
2023-05-10T05:04:50.162Z,28.42
2023-05-10T05:07:20.633Z,21.35
2023-05-10T05:09:50.545Z,18.50
2023-05-10T05:12:20.930Z,20.05
2023-05-10T05:14:50.821Z,20.13
2023-05-10T05:17:21.168Z,36.38
2023-05-10T05:19:51.093Z,66.80
2023-05-10T05:22:21.793Z,51.42
2023-05-10T05:24:51.754Z,54.33
2023-05-10T05:27:24.517Z,39.95
2023-05-10T05:29:58.426Z,40.47
2023-05-10T05:32:28.906Z,42.35
2023-05-10T05:34:58.938Z,40.85
2023-05-10T05:37:29.322Z,34.63
2023-05-10T05:39:59.207Z,35.60
2023-05-10T05:42:29.995Z,26.90
2023-05-10T05:44:59.967Z,22.60
2023-05-10T05:47:30.440Z,17.95
2023-05-10T05:50:00.248Z,15.68
2023-05-10T05:52:30.802Z,25.42
2023-05-10T05:55:00.745Z,16.00
2023-05-10T05:57:32.114Z,17.75
2023-05-10T06:00:02.659Z,15.43
2023-05-10T06:02:42.241Z,13.70
2023-05-10T06:05:12.326Z,12.25
2023-05-10T06:07:45.821Z,11.77
2023-05-10T06:10:15.697Z,10.68
2023-05-10T06:12:46.035Z,11.65
2023-05-10T06:15:16.292Z,13.05
2023-05-10T06:17:46.881Z,18.58
2023-05-10T06:20:16.997Z,12.63
2023-05-10T06:22:47.590Z,11.85
2023-05-10T06:25:20.088Z,16.75
2023-05-10T06:30:25.205Z,10.75
2023-05-10T06:32:55.856Z,16.17
2023-05-10T06:35:26.301Z,15.88
2023-05-10T06:37:57.578Z,14.98
2023-05-10T06:40:27.506Z,20.30
2023-05-10T06:42:57.256Z,26.92
2023-05-10T06:45:27.624Z,29.85
2023-05-10T06:47:57.443Z,28.13
2023-05-10T06:50:27.911Z,28.77
2023-05-10T06:52:58.026Z,27.95
2023-05-10T06:55:28.759Z,18.67
2023-05-10T06:57:58.717Z,33.47
2023-05-10T07:00:29.207Z,29.48
2023-05-10T07:02:59.214Z,19.25
2023-05-10T07:05:30.052Z,31.35
2023-05-10T07:08:00.067Z,13.98
2023-05-10T07:10:30.570Z,28.20
2023-05-10T07:13:00.711Z,23.08
2023-05-10T07:15:31.176Z,23.65
2023-05-10T07:18:01.243Z,16.42
2023-05-10T07:20:31.855Z,25.38
2023-05-10T07:23:01.960Z,19.13
2023-05-10T07:25:32.413Z,29.08
2023-05-10T07:28:02.348Z,17.20
2023-05-10T07:30:32.856Z,25.05
2023-05-10T07:33:02.919Z,16.90
2023-05-10T07:35:33.365Z,16.17
2023-05-10T07:38:03.396Z,21.02
2023-05-10T07:40:34.302Z,20.30
2023-05-10T07:43:04.440Z,22.02
2023-05-10T07:45:35.495Z,11.63
2023-05-10T07:48:05.632Z,11.05
2023-05-10T07:50:35.995Z,11.93
2023-05-10T07:53:05.934Z,12.57
2023-05-10T07:55:36.293Z,12.70
2023-05-10T07:58:06.388Z,12.20
2023-05-10T08:00:36.915Z,12.75
2023-05-10T08:03:06.976Z,13.35
2023-05-10T08:05:37.661Z,13.25
2023-05-10T08:08:07.678Z,12.48
2023-05-10T08:10:37.994Z,12.95
2023-05-10T08:13:08.233Z,12.30
2023-05-10T08:15:38.567Z,12.20
2023-05-10T08:18:08.586Z,12.82
2023-05-10T08:20:38.935Z,14.52
2023-05-10T08:23:08.911Z,12.60
2023-05-10T08:25:39.276Z,12.23
2023-05-10T08:28:10.040Z,12.05
2023-05-10T08:30:42.234Z,12.25
2023-05-10T08:33:12.293Z,11.95
2023-05-10T08:35:46.281Z,10.25
2023-05-10T08:38:16.268Z,9.90
2023-05-10T08:40:47.839Z,11.77
2023-05-10T08:43:17.951Z,11.10
2023-05-10T08:45:49.013Z,16.40
2023-05-10T08:48:20.135Z,10.27
2023-05-10T08:50:52.269Z,7.97
2023-05-10T08:53:23.628Z,7.97
2023-05-10T08:55:54.271Z,7.25
2023-05-10T08:58:25.341Z,11.23
2023-05-10T09:00:56.708Z,13.45
2023-05-10T09:03:26.690Z,11.50
2023-05-10T09:06:00.281Z,11.23
2023-05-10T09:08:30.422Z,33.92
2023-05-10T09:11:02.333Z,10.77
2023-05-10T09:13:33.082Z,13.38
2023-05-10T09:16:10.183Z,8.55
2023-05-10T09:18:51.447Z,10.32
2023-05-10T09:21:22.788Z,9.80
2023-05-10T09:23:53.128Z,10.88
2023-05-10T09:26:26.953Z,11.77
2023-05-10T09:28:59.246Z,13.88
2023-05-10T09:31:49.998Z,15.90
2023-05-10T09:34:34.182Z,13.48
2023-05-10T09:37:08.283Z,22.88
2023-05-10T09:39:39.895Z,31.00
2023-05-10T09:42:13.366Z,35.47
2023-05-10T09:44:45.531Z,32.25
2023-05-10T09:47:21.065Z,40.67
2023-05-10T09:49:55.098Z,27.42
2023-05-10T09:52:25.506Z,24.55
2023-05-10T09:54:56.794Z,18.95
2023-05-10T09:57:28.172Z,29.08
2023-05-10T09:59:59.661Z,20.67
2023-05-10T10:02:33.432Z,33.35
2023-05-10T10:05:06.734Z,23.25
2023-05-10T10:07:37.948Z,28.27
2023-05-10T10:10:13.572Z,33.85
2023-05-10T10:12:44.483Z,31.52
2023-05-10T10:15:16.615Z,30.35
2023-05-10T10:17:48.079Z,31.40
2023-05-10T10:20:19.160Z,41.55
2023-05-10T10:22:50.602Z,36.13
2023-05-10T10:25:22.423Z,33.20
2023-05-10T10:27:55.948Z,19.45
2023-05-10T10:30:45.015Z,42.55
2023-05-10T10:33:44.856Z,15.93
2023-05-10T10:36:16.006Z,36.55
2023-05-10T10:38:49.085Z,20.58
2023-05-10T10:41:36.804Z,15.88
2023-05-10T10:44:28.918Z,14.55
2023-05-10T10:47:14.122Z,14.07
2023-05-10T10:49:44.467Z,14.20
2023-05-10T10:52:32.081Z,12.82
2023-05-10T10:55:07.453Z,12.23
2023-05-10T10:57:43.562Z,12.48
2023-05-10T11:00:42.090Z,13.80
2023-05-10T11:03:16.512Z,12.15
2023-05-10T11:05:47.213Z,15.82
2023-05-10T11:08:29.595Z,12.02
2023-05-10T11:11:03.052Z,13.98
2023-05-10T11:13:37.632Z,13.93
2023-05-10T11:16:29.045Z,13.02
2023-05-10T11:19:05.496Z,13.77
2023-05-10T11:21:46.696Z,13.27
2023-05-10T11:24:29.607Z,12.68
2023-05-10T11:27:00.296Z,18.40
2023-05-10T11:29:30.488Z,19.63
2023-05-10T11:32:01.811Z,18.38
2023-05-10T11:34:35.499Z,17.40
2023-05-10T11:37:05.848Z,25.67
2023-05-10T11:39:36.049Z,18.35
2023-05-10T11:42:06.769Z,24.67
2023-05-10T11:44:36.926Z,23.38
2023-05-10T11:47:08.237Z,16.38
2023-05-10T11:49:38.177Z,27.08
2023-05-10T11:52:13.484Z,13.93
2023-05-10T11:55:10.268Z,16.35
2023-05-10T11:57:40.726Z,20.50
2023-05-10T12:00:12.896Z,26.42
2023-05-10T12:02:46.182Z,26.23
2023-05-10T12:05:16.992Z,17.60
2023-05-10T12:07:47.024Z,15.55
2023-05-10T12:10:18.942Z,13.55
2023-05-10T12:12:50.312Z,17.98
2023-05-10T12:15:23.021Z,13.90
2023-05-10T12:17:54.003Z,11.68
2023-05-10T12:20:26.426Z,19.90
2023-05-10T12:23:00.321Z,18.02
2023-05-10T12:25:36.172Z,11.98
2023-05-10T12:28:07.969Z,10.35
2023-05-10T12:30:39.695Z,15.68
2023-05-10T12:33:18.642Z,12.68
2023-05-10T12:35:54.123Z,14.07
2023-05-10T12:38:40.346Z,10.98
2023-05-10T12:41:13.196Z,13.90
2023-05-10T12:43:43.677Z,11.50
2023-05-10T12:46:15.375Z,13.35
2023-05-10T12:48:47.485Z,13.05
2023-05-10T12:51:21.470Z,11.60
2023-05-10T12:53:51.594Z,10.68
2023-05-10T12:56:22.247Z,11.30
2023-05-10T12:58:53.040Z,10.68
2023-05-10T13:01:23.549Z,9.18
2023-05-10T13:03:53.545Z,10.50
2023-05-10T13:06:23.389Z,9.32
2023-05-10T13:08:53.925Z,9.75
2023-05-10T13:11:23.941Z,8.20
2023-05-10T13:13:54.502Z,7.95
2023-05-10T13:16:24.829Z,10.02
2023-05-10T13:18:55.302Z,10.75
2023-05-10T13:21:26.780Z,7.85
2023-05-10T13:23:57.658Z,8.15
2023-05-10T13:26:27.737Z,8.80
2023-05-10T13:28:58.146Z,8.75
2023-05-10T13:31:28.398Z,8.13
2023-05-10T13:33:58.711Z,8.25
2023-05-10T13:36:28.550Z,7.85
2023-05-10T13:38:58.894Z,7.05
2023-05-10T13:41:31.936Z,7.53
2023-05-10T13:44:03.008Z,7.30
2023-05-10T13:46:33.108Z,7.82
2023-05-10T13:49:04.068Z,8.80
2023-05-10T13:51:34.056Z,8.65
2023-05-10T13:54:07.187Z,8.32
2023-05-10T13:56:37.330Z,7.35
2023-05-10T13:59:07.711Z,6.32
2023-05-10T14:02:08.841Z,7.03
2023-05-10T14:04:39.238Z,6.78
2023-05-10T14:07:09.222Z,6.63
2023-05-10T14:09:39.559Z,6.40
2023-05-10T14:12:09.765Z,6.10
2023-05-10T14:14:40.236Z,6.07
2023-05-10T14:17:12.232Z,5.40
2023-05-10T14:19:42.924Z,5.72
2023-05-10T14:22:13.009Z,5.07
2023-05-10T14:24:42.824Z,5.18
2023-05-10T14:27:13.937Z,4.57
2023-05-10T14:29:44.143Z,4.70
2023-05-10T14:32:14.690Z,5.28
2023-05-10T14:34:44.725Z,5.00
2023-05-10T14:37:17.563Z,5.22
2023-05-10T14:42:17.754Z,5.55
2023-05-10T14:44:47.479Z,5.18
2023-05-10T14:47:17.409Z,5.72
2023-05-10T14:49:48.019Z,5.47
2023-05-10T14:52:18.101Z,5.90
2023-05-10T14:54:48.377Z,4.95
2023-05-10T14:57:18.869Z,5.10
2023-05-10T14:59:48.694Z,5.40
2023-05-10T15:02:20.604Z,5.20
2023-05-10T15:04:51.161Z,4.63
2023-05-10T15:07:22.130Z,4.90
2023-05-10T15:09:54.000Z,4.82
2023-05-10T15:12:24.414Z,5.35
2023-05-10T15:14:54.383Z,6.07
2023-05-10T15:17:24.797Z,5.40
2023-05-10T15:19:54.715Z,5.80
2023-05-10T15:22:25.081Z,5.88
2023-05-10T15:24:55.006Z,6.50
2023-05-10T15:27:25.357Z,6.60
2023-05-10T15:29:55.739Z,6.13
2023-05-10T15:32:26.131Z,6.18
2023-05-10T15:34:56.080Z,5.68
2023-05-10T15:37:26.687Z,5.95
2023-05-10T15:40:03.340Z,7.20
2023-05-10T15:42:34.234Z,6.68
2023-05-10T15:45:04.148Z,6.43
2023-05-10T15:47:34.013Z,6.30
2023-05-10T15:50:04.738Z,7.13
2023-05-10T15:52:34.699Z,6.57
2023-05-10T15:55:05.312Z,5.93
2023-05-10T15:57:36.857Z,6.00
2023-05-10T16:00:08.393Z,6.35
2023-05-10T16:02:42.675Z,6.07
2023-05-10T16:05:13.215Z,5.63
2023-05-10T16:07:43.505Z,4.65
2023-05-10T16:10:14.033Z,5.43
2023-05-10T16:12:44.040Z,4.60
2023-05-10T16:15:14.632Z,4.30
2023-05-10T16:17:44.895Z,4.15
2023-05-10T16:20:15.424Z,3.65
2023-05-10T16:22:45.625Z,3.65
2023-05-10T16:25:16.127Z,2.78
2023-05-10T16:27:46.233Z,2.50
2023-05-10T16:30:16.693Z,2.42
2023-05-10T16:32:46.808Z,2.97
2023-05-10T16:35:17.475Z,2.00
2023-05-10T16:37:47.817Z,2.30
2023-05-10T16:40:18.975Z,2.17
2023-05-10T16:42:48.933Z,2.55
2023-05-10T16:45:19.452Z,2.17
2023-05-10T16:47:49.563Z,2.50
2023-05-10T16:50:20.021Z,2.67
2023-05-10T16:52:50.087Z,2.05
2023-05-10T16:55:20.691Z,2.03
2023-05-10T16:57:51.249Z,2.20
2023-05-10T17:00:22.062Z,2.42
2023-05-10T17:02:52.429Z,2.33
2023-05-10T17:05:24.035Z,2.47
2023-05-10T17:07:54.262Z,2.38
2023-05-10T17:10:24.811Z,2.50
2023-05-10T17:12:54.886Z,2.40
2023-05-10T17:15:25.306Z,2.22
2023-05-10T17:17:55.337Z,2.47
2023-05-10T17:20:25.789Z,2.22
2023-05-10T17:22:55.875Z,2.15
2023-05-10T17:25:26.272Z,1.92
2023-05-10T17:27:56.287Z,2.50
2023-05-10T17:30:27.410Z,2.03
2023-05-10T17:32:57.457Z,2.40
2023-05-10T17:35:27.396Z,1.75
2023-05-10T17:37:57.869Z,2.08
2023-05-10T17:40:27.854Z,2.20
2023-05-10T17:42:58.301Z,2.00
2023-05-10T17:45:28.263Z,2.05
2023-05-10T17:47:58.655Z,1.92
2023-05-10T17:50:28.712Z,2.28
2023-05-10T17:52:59.158Z,2.13
2023-05-10T17:55:31.192Z,2.25
2023-05-10T17:58:02.101Z,2.20
2023-05-10T18:00:32.094Z,2.95
2023-05-10T18:03:04.911Z,2.33
2023-05-10T18:05:43.949Z,2.22
2023-05-10T18:08:14.406Z,2.17
2023-05-10T18:10:44.365Z,2.28
2023-05-10T18:13:14.769Z,2.60
2023-05-10T18:15:44.957Z,2.25
2023-05-10T18:18:15.420Z,2.70
2023-05-10T18:20:47.311Z,3.30
2023-05-10T18:23:17.779Z,2.67
2023-05-10T18:25:47.809Z,2.22
2023-05-10T18:28:18.381Z,2.65
2023-05-10T18:30:48.317Z,2.75
2023-05-10T18:33:18.792Z,2.17
2023-05-10T18:35:48.813Z,2.85
2023-05-10T18:38:19.345Z,2.92
2023-05-10T18:40:49.381Z,2.72
2023-05-10T18:43:19.808Z,3.30
2023-05-10T18:45:49.819Z,2.78
2023-05-10T18:48:20.302Z,2.90
2023-05-10T18:50:50.195Z,2.53
2023-05-10T18:53:20.592Z,2.97
2023-05-10T18:55:58.959Z,2.65
2023-05-10T18:58:30.127Z,2.80
2023-05-10T19:01:00.043Z,3.00
2023-05-10T19:03:31.395Z,2.65
2023-05-10T19:06:01.504Z,3.10
2023-05-10T19:08:31.831Z,2.35
2023-05-10T19:11:01.817Z,2.50
2023-05-10T19:13:32.282Z,3.05
2023-05-10T19:16:06.563Z,2.85
2023-05-10T19:18:39.356Z,2.95
2023-05-10T19:21:11.518Z,4.10
2023-05-10T19:23:43.059Z,3.28
2023-05-10T19:26:13.529Z,3.33
2023-05-10T19:28:43.865Z,3.65
2023-05-10T19:31:13.673Z,3.45
2023-05-10T19:33:44.061Z,2.53
2023-05-10T19:36:14.299Z,3.00
2023-05-10T19:38:44.720Z,3.10
2023-05-10T19:41:14.515Z,2.50
2023-05-10T19:43:44.853Z,2.65
2023-05-10T19:46:16.627Z,3.03
2023-05-10T19:48:50.816Z,2.40
2023-05-10T19:51:20.934Z,2.53
2023-05-10T19:53:50.799Z,2.50
2023-05-10T19:56:21.314Z,3.30
2023-05-10T19:58:51.330Z,2.60
2023-05-10T20:01:22.020Z,5.32
2023-05-10T20:03:52.480Z,2.92
2023-05-10T20:06:22.990Z,2.83
2023-05-10T20:08:52.740Z,2.97
2023-05-10T20:11:23.192Z,3.10
2023-05-10T20:13:53.212Z,3.90
2023-05-10T20:16:25.911Z,3.33
2023-05-10T20:18:56.825Z,3.67
2023-05-10T20:21:27.891Z,3.72
2023-05-10T20:23:57.858Z,3.38
2023-05-10T20:26:28.273Z,3.67
2023-05-10T20:28:58.225Z,3.70
2023-05-10T20:31:28.602Z,3.70
2023-05-10T20:33:58.706Z,3.47
2023-05-10T20:36:29.874Z,3.67
2023-05-10T20:38:59.793Z,4.25
2023-05-10T20:41:30.260Z,4.13
2023-05-10T20:44:00.311Z,4.13
2023-05-10T20:46:31.507Z,4.57
2023-05-10T20:49:01.530Z,5.95
2023-05-10T20:51:34.112Z,5.57
2023-05-10T20:54:05.513Z,5.03
2023-05-10T20:56:36.135Z,4.80
2023-05-10T20:59:06.712Z,3.67
2023-05-10T21:01:37.108Z,3.83
2023-05-10T21:04:07.798Z,4.65
2023-05-10T21:06:38.752Z,4.30
2023-05-10T21:09:08.767Z,4.13
2023-05-10T21:11:42.174Z,4.10
2023-05-10T21:14:12.226Z,4.38
2023-05-10T21:16:42.714Z,4.68
2023-05-10T21:19:13.341Z,4.68
2023-05-10T21:21:43.642Z,4.88
2023-05-10T21:24:13.622Z,4.65
2023-05-10T21:26:44.406Z,4.78
2023-05-10T21:29:14.338Z,5.63
2023-05-10T21:31:44.701Z,4.65
2023-05-10T21:34:15.329Z,4.28
2023-05-10T21:36:45.818Z,4.03
2023-05-10T21:39:15.746Z,4.53
2023-05-10T21:41:46.026Z,4.85
2023-05-10T21:44:15.803Z,4.45
2023-05-10T21:46:46.503Z,4.70
2023-05-10T21:49:16.569Z,5.28
2023-05-10T21:51:50.496Z,4.50
2023-05-10T21:54:20.561Z,4.35
2023-05-10T21:56:50.874Z,4.43
2023-05-10T21:59:22.498Z,4.55
2023-05-10T22:01:52.821Z,4.57
2023-05-10T22:04:22.840Z,4.93
2023-05-10T22:06:53.182Z,4.63
2023-05-10T22:09:25.467Z,4.72
2023-05-10T22:11:55.858Z,4.53
2023-05-10T22:14:25.810Z,4.85
2023-05-10T22:16:56.166Z,5.00
2023-05-10T22:19:25.901Z,5.65
2023-05-10T22:21:56.624Z,5.30
2023-05-10T22:24:26.570Z,5.82
2023-05-10T22:26:59.099Z,5.40
2023-05-10T22:29:29.326Z,4.82
2023-05-10T22:31:59.943Z,5.70
2023-05-10T22:34:30.071Z,5.13
2023-05-10T22:37:02.960Z,5.07
2023-05-10T22:39:32.902Z,5.05
2023-05-10T22:42:03.209Z,5.32
2023-05-10T22:44:32.965Z,5.22
2023-05-10T22:47:03.471Z,5.43
2023-05-10T22:49:36.614Z,5.18
2023-05-10T22:52:07.042Z,4.85
2023-05-10T22:54:37.028Z,4.38
2023-05-10T22:57:07.595Z,5.03
2023-05-10T22:59:37.735Z,4.50
2023-05-10T23:02:08.414Z,4.90
2023-05-10T23:04:38.406Z,4.85
2023-05-10T23:07:08.510Z,5.50
2023-05-10T23:09:38.844Z,5.00
2023-05-10T23:12:08.812Z,6.72
2023-05-10T23:14:39.321Z,7.25
2023-05-10T23:17:09.797Z,7.43
2023-05-10T23:19:40.196Z,7.65
2023-05-10T23:22:11.096Z,7.50
2023-05-10T23:24:42.036Z,8.00
2023-05-10T23:27:12.520Z,8.02
2023-05-10T23:29:43.354Z,9.75
2023-05-10T23:32:13.371Z,9.70
2023-05-10T23:34:43.888Z,9.25
2023-05-10T23:37:13.885Z,9.23
2023-05-10T23:39:44.867Z,8.35
2023-05-10T23:42:14.904Z,8.23
2023-05-10T23:44:45.298Z,8.98
2023-05-10T23:47:15.276Z,8.88
2023-05-10T23:49:46.332Z,8.70
2023-05-10T23:52:16.283Z,8.95
2023-05-10T23:54:46.952Z,9.52
2023-05-10T23:57:17.163Z,10.00
2023-05-10T23:59:50.048Z,10.63
